AirNav   Air Wisconsin Up To $57,000 Bonus
 
 619 users online  

1NC2 Atwell Airport
Mooresville, North Carolina, USA

GOING TO MOORESVILLE?


FAA INFORMATION EFFECTIVE 03 NOVEMBER 2022

Location

FAA Identifier: 1NC2
Lat/Long: 35-39-17.0000N 080-47-22.0000W
35-39.283333N 080-47.366667W
35.6547222,-80.7894444
(estimated)
Elevation: 830 ft. / 253 m (estimated)
From city: 3 miles NE of MOORESVILLE, NC
Time zone: UTC -5 (UTC -4 during Daylight Saving Time)
Zip code: 28125

Airport Operations

Airport use: Private use. Permission required prior to landing
Activation date: 04/2005
Control tower: no
ARTCC: ATLANTA CENTER
FSS: RALEIGH FLIGHT SERVICE STATION
Attendance: UNATNDD
Segmented circle: no

Airport Communications

WX AWOS-3 at SVH (10 nm NW): 119.225 (704-873-1978)
WX AWOS-3 at RUQ (13 nm E): 118.175 (704-637-6197)
WX AWOS-3 at JQF (16 nm S): 133.675 (704-785-2145)

Nearby radio navigation aids

VOR radial/distance  VOR name  Freq  Var
BZMr126/25.4BARRETTS MOUNTAIN VOR/DME113.7506W
CLTr021/29.0CHARLOTTE VOR/DME115.0005W

 
NDB name  Hdg/Dist  Freq  Var  ID
STONIA039/33.126006WGHJ --. .... .---

Airport Services

Runway Information

Runway 18/36

Dimensions: 1700 x 60 ft. / 518 x 18 m
Surface: turf
RUNWAY 18  RUNWAY 36
Traffic pattern: leftleft
Obstructions: 40 ft. pline, 50 ft. from runway60 ft. trees, 350 ft. from runway

Airport Ownership and Management from official FAA records

Ownership: Privately-owned
Owner: SCOTT ATWELL
135 ATWELL FARM LANE
MOORESVILLE, NC 28115
Phone 704-400-0626
Manager: SCOTT ATWELL
135 ATWELL FARM LANE
MOORESVILLE, NC 28115
Phone 704-400-0626

Airport Operational Statistics

Aircraft based on the field: 2
Single engine airplanes: 2
    

Additional Remarks

FOR CD CTC CHARLOTTE APCH AT 704-359-0241.

Instrument Procedures

There are no published instrument procedures at 1NC2.

Some nearby airports with instrument procedures:

14A - Lake Norman Airpark (6 nm SW)
KSVH - Statesville Regional Airport (10 nm NW)
KRUQ - Mid-Carolina Regional Airport (13 nm E)
KJQF - Concord-Padgett Regional Airport (16 nm S)
KIPJ - Lincolnton-Lincoln County Regional Airport (21 nm SW)
 
Loc | Ops | Rwys | IFR | FBO | Links
Com | Nav | Svcs | Stats | Notes
Area around 1NC2 (Atwell Airport)
 
Road maps at: MapQuest Bing Google
 
Aerial photo
No photo
 
Sectional chart

 
Airport distance calculator
Flying to Atwell Airport? Find the distance to fly.

From to 1NC2

Sunrise and sunset
Times for 28-Nov-2022
 Local
(UTC-5)
 Zulu
(UTC)
Morning civil twilight06:4511:45
Sunrise07:1312:13
Sunset17:1022:10
Evening civil twilight17:3722:37

Current date and time
Zulu (UTC)  28-Nov-2022 12:27:24
Local (UTC-5)  28-Nov-2022 07:27:24
 
METAR
KSVH 
10nm NW 
281215Z AUTO 23003KT 10SM CLR 05/04 A2985 RMK AO2 T00540039
KRUQ 
13nm E 
281215Z AUTO 00000KT 10SM CLR 05/04 A2985 RMK AO2 T00490041
KJQF 
17nm S 
281215Z AUTO 00000KT 10SM CLR 07/06 A2988 RMK AO2
TAF
KCLT 
27nm S 
281131Z 2812/2918 25004KT P6SM SKC FM281500 28006KT P6SM FEW250 FM282000 30004KT P6SM FEW030 FM290400 05003KT P6SM SKC FM291400 08005KT P6SM FEW250
KHKY 
29nm W 
281131Z 2812/2912 29005KT P6SM SKC FM282200 32004KT P6SM FEW028 FM290000 36003KT P6SM FEW029 FM290500 00000KT P6SM FEW250
NOTAMs
Click for the latest NOTAMs
NOTAMs are issued by the DoD/FAA and will open in a separate window not controlled by AirNav.

 

 
 

Would you like to see your business listed on this page?

 If your business provides an interesting product or service to pilots, flight crews, aircraft, or users of the Atwell Airport, you should consider listing it here.  To start the listing process, click on the button below
 
Add a business
 

Other Pages about Atwell Airport

Update a link
 
Copyright © AirNav, LLC. All rights reserved. Privacy Policy  Contact